Time;durP1;ratioP1;P1;durP2;ratioP2;P2;SDS_P1;SDS_P2;PMS_P1;PMS_P2;Temp;Humidity;BMP_temperature;BMP_pressure;BME280_temperature;BME280_humidity;BME280_pressure;Samples;Min_cycle;Max_cycle;Signal;HPM_P1;HPM_P2
2024/01/03 00:01:02;;;;;;;340.98;318.95;;;12.60;99.90;;;;;;4988050;28;20392;-76
2024/01/03 00:03:28;;;;;;;301.00;281.17;;;12.60;99.90;;;;;;4988414;28;20054;-75
2024/01/03 00:05:54;;;;;;;326.70;304.35;;;12.60;99.90;;;;;;4987857;28;20039;-75
2024/01/03 00:08:25;;;;;;;398.25;372.35;;;12.60;99.90;;;;;;4989691;28;20041;-76
2024/01/03 00:10:53;;;;;;;461.17;430.42;;;12.60;99.90;;;;;;4987842;28;20042;-76
2024/01/03 00:13:37;;;;;;;384.92;360.02;;;12.60;99.90;;;;;;4989396;28;20113;-75
2024/01/03 00:16:20;;;;;;;364.98;340.35;;;12.60;99.90;;;;;;4989169;28;20035;-75
2024/01/03 00:18:54;;;;;;;329.88;308.15;;;12.60;99.90;;;;;;4988056;28;20041;-75
2024/01/03 00:21:25;;;;;;;352.73;329.38;;;12.60;99.90;;;;;;4987946;28;20353;-76
2024/01/03 00:24:04;;;;;;;391.48;366.30;;;12.60;99.90;;;;;;4991177;28;20047;-76
2024/01/03 00:26:32;;;;;;;397.90;372.10;;;12.60;99.90;;;;;;4989265;28;20030;-76
2024/01/03 00:28:58;;;;;;;362.20;337.45;;;12.60;99.90;;;;;;4989160;28;20380;-76
2024/01/03 00:31:41;;;;;;;411.80;384.42;;;12.60;99.90;;;;;;4988980;28;20046;-76
2024/01/03 00:34:16;;;;;;;393.83;366.90;;;12.60;99.90;;;;;;4987781;28;20034;-76
2024/01/03 00:36:42;;;;;;;356.20;332.08;;;12.60;99.90;;;;;;4989881;28;20042;-76
2024/01/03 00:39:09;;;;;;;366.55;341.17;;;12.60;99.90;;;;;;5054827;28;20048;-76
2024/01/03 00:41:35;;;;;;;358.85;334.95;;;12.60;99.90;;;;;;5032611;28;20035;-76
2024/01/03 00:44:01;;;;;;;422.75;395.25;;;12.60;99.90;;;;;;4992593;28;20057;-76
2024/01/03 00:46:27;;;;;;;479.33;447.35;;;12.50;99.90;;;;;;4992038;28;20391;-76
2024/01/03 00:48:53;;;;;;;385.70;359.73;;;12.60;99.90;;;;;;4992062;28;20098;-76
2024/01/03 00:51:19;;;;;;;396.73;370.35;;;12.60;99.90;;;;;;4992391;28;20491;-75
2024/01/03 00:53:45;;;;;;;476.95;445.30;;;12.60;99.90;;;;;;4992445;28;20026;-75
2024/01/03 00:56:12;;;;;;;444.08;414.33;;;12.50;99.90;;;;;;4992424;28;20491;-76
2024/01/03 00:58:39;;;;;;;468.55;437.33;;;12.60;99.90;;;;;;4991625;28;20042;-76
2024/01/03 01:01:05;;;;;;;433.30;404.58;;;12.60;99.90;;;;;;4990646;28;20041;-77
2024/01/03 01:03:31;;;;;;;442.42;412.58;;;12.60;99.90;;;;;;4991912;28;20026;-77
2024/01/03 01:05:57;;;;;;;496.45;463.55;;;12.60;99.90;;;;;;4991211;28;20476;-76
2024/01/03 01:08:23;;;;;;;497.35;463.73;;;12.60;99.90;;;;;;5007001;28;20033;-77
2024/01/03 01:10:49;;;;;;;457.02;427.77;;;12.60;99.90;;;;;;5006202;28;20476;-76
2024/01/03 01:13:15;;;;;;;394.77;369.20;;;12.60;99.90;;;;;;4992034;28;20047;-76
2024/01/03 01:15:41;;;;;;;464.90;433.75;;;12.60;99.90;;;;;;4991705;27;20396;-75
2024/01/03 01:18:07;;;;;;;470.95;439.77;;;12.60;99.90;;;;;;4991539;28;20031;-76
2024/01/03 01:20:34;;;;;;;416.25;388.52;;;12.60;99.90;;;;;;4991961;28;20468;-75
2024/01/03 01:23:00;;;;;;;371.88;347.52;;;12.60;99.90;;;;;;4991789;28;20033;-75
2024/01/03 01:25:26;;;;;;;398.65;372.85;;;12.60;99.90;;;;;;4991826;28;20045;-75
2024/01/03 01:27:52;;;;;;;287.85;269.63;;;12.60;99.90;;;;;;4991496;28;20042;-76
2024/01/03 01:30:18;;;;;;;255.60;238.38;;;12.60;99.90;;;;;;4991168;28;20030;-76
2024/01/03 01:32:44;;;;;;;275.50;256.85;;;12.50;99.90;;;;;;4991510;28;20046;-76
2024/01/03 01:35:10;;;;;;;204.63;191.02;;;12.50;99.90;;;;;;4991652;28;20037;-76
2024/01/03 01:37:36;;;;;;;191.98;178.68;;;12.40;99.90;;;;;;4990429;28;20038;-76
2024/01/03 01:40:03;;;;;;;203.93;190.07;;;12.40;99.90;;;;;;5092023;28;20047;-76
2024/01/03 01:42:30;;;;;;;243.23;226.18;;;12.40;99.90;;;;;;4992781;28;20053;-75
2024/01/03 01:44:57;;;;;;;254.55;236.45;;;12.40;99.90;;;;;;4991330;28;20038;-76
2024/01/03 01:47:24;;;;;;;266.33;248.32;;;12.40;99.90;;;;;;4988934;28;20046;-76
2024/01/03 01:49:50;;;;;;;288.55;269.80;;;12.30;99.90;;;;;;4989912;28;20397;-77
2024/01/03 01:52:16;;;;;;;303.95;283.55;;;12.30;99.90;;;;;;4990236;28;20046;-76
2024/01/03 01:54:42;;;;;;;314.30;294.10;;;12.30;99.90;;;;;;4990294;28;20026;-75
2024/01/03 01:57:09;;;;;;;289.25;270.42;;;12.40;99.90;;;;;;4991381;28;20056;-76
2024/01/03 01:59:35;;;;;;;271.08;253.50;;;12.40;99.90;;;;;;4990356;28;20035;-75
2024/01/03 02:02:01;;;;;;;241.68;225.90;;;12.40;99.90;;;;;;4989579;28;20043;-75
2024/01/03 02:04:27;;;;;;;250.10;233.02;;;12.40;99.90;;;;;;4990292;28;20030;-75
2024/01/03 02:06:53;;;;;;;236.27;221.65;;;12.40;99.90;;;;;;4989977;28;20117;-75
2024/01/03 02:09:19;;;;;;;257.13;241.85;;;12.40;99.90;;;;;;4990037;28;20026;-76
2024/01/03 02:11:46;;;;;;;295.63;278.10;;;12.40;99.90;;;;;;4991091;28;20062;-75
2024/01/03 02:14:12;;;;;;;295.65;276.48;;;12.30;99.90;;;;;;4990698;28;20038;-76
2024/01/03 02:16:38;;;;;;;312.80;293.27;;;12.30;99.90;;;;;;4989143;28;20043;-75
2024/01/03 02:19:04;;;;;;;370.92;346.85;;;12.30;99.90;;;;;;5009457;28;20499;-77
2024/01/03 02:21:31;;;;;;;719.50;456.70;;;12.30;99.90;;;;;;4999819;28;20473;-76
2024/01/03 02:23:57;;;;;;;1189.55;677.70;;;12.20;99.90;;;;;;4990904;28;20037;-75
2024/01/03 02:26:23;;;;;;;249.25;234.32;;;12.20;99.90;;;;;;4991131;28;20038;-75
2024/01/03 02:28:49;;;;;;;720.63;458.15;;;12.20;99.90;;;;;;4990603;28;20067;-76
2024/01/03 02:31:15;;;;;;;1223.50;709.50;;;12.20;99.90;;;;;;4990259;28;20420;-76
2024/01/03 02:33:41;;;;;;;352.95;331.50;;;12.20;99.90;;;;;;4989545;28;20049;-76
2024/01/03 02:36:07;;;;;;;322.63;303.70;;;12.20;99.90;;;;;;4990652;28;20075;-76
2024/01/03 02:38:33;;;;;;;421.35;394.67;;;12.20;99.90;;;;;;5019723;28;20060;-76
2024/01/03 02:40:59;;;;;;;330.02;309.95;;;12.10;99.90;;;;;;4996179;28;20049;-76
2024/01/03 02:43:26;;;;;;;333.63;312.98;;;12.10;99.90;;;;;;4990637;28;20034;-76
2024/01/03 02:45:52;;;;;;;357.52;334.02;;;12.10;99.90;;;;;;4989348;28;20046;-76
2024/01/03 02:48:18;;;;;;;319.30;299.35;;;12.10;99.90;;;;;;4990358;28;20053;-76
2024/01/03 02:50:47;;;;;;;324.65;304.92;;;12.10;99.90;;;;;;4989533;28;20037;-77
2024/01/03 02:53:15;;;;;;;298.27;278.60;;;12.10;99.90;;;;;;4989487;28;20057;-76
2024/01/03 02:55:41;;;;;;;316.73;296.67;;;12.10;99.90;;;;;;4991910;28;20042;-76
2024/01/03 02:58:07;;;;;;;327.45;306.08;;;12.10;99.90;;;;;;4990633;28;20495;-76
2024/01/03 03:00:36;;;;;;;311.65;291.33;;;12.10;99.90;;;;;;4988915;28;20037;-76
2024/01/03 03:03:02;;;;;;;394.45;369.83;;;12.10;99.90;;;;;;4986452;28;20038;-77
2024/01/03 03:05:28;;;;;;;359.92;336.23;;;12.10;99.90;;;;;;4994923;28;20024;-76
2024/01/03 03:07:55;;;;;;;454.50;424.98;;;12.10;99.90;;;;;;5004451;28;20041;-76
2024/01/03 03:10:21;;;;;;;265.00;246.98;;;12.10;99.90;;;;;;5060717;28;20024;-76
2024/01/03 03:12:47;;;;;;;363.17;339.60;;;12.10;99.90;;;;;;4988952;28;20484;-76
2024/01/03 03:15:13;;;;;;;325.10;304.08;;;12.10;99.90;;;;;;4988111;28;20034;-77
2024/01/03 03:17:41;;;;;;;350.88;328.92;;;12.20;99.90;;;;;;4987863;28;20041;-76
2024/01/03 03:20:07;;;;;;;340.63;318.13;;;12.10;99.90;;;;;;4988767;28;20038;-76
2024/01/03 03:22:33;;;;;;;323.10;301.23;;;12.20;99.90;;;;;;4988916;28;20499;-76
2024/01/03 03:24:59;;;;;;;358.95;335.63;;;12.20;99.90;;;;;;4988852;28;20030;-77
2024/01/03 03:27:25;;;;;;;1999.90;999.90;;;12.20;99.90;;;;;;4988908;28;20526;-76
2024/01/03 03:29:52;;;;;;;1588.55;832.88;;;12.20;99.90;;;;;;4988295;28;20042;-76
2024/01/03 03:32:18;;;;;;;1160.93;650.28;;;12.20;99.90;;;;;;4986536;28;20485;-77
2024/01/03 03:34:44;;;;;;;324.02;303.33;;;12.20;99.90;;;;;;4988592;28;20049;-76
2024/01/03 03:37:10;;;;;;;1171.60;660.28;;;12.20;99.90;;;;;;4988403;28;20034;-76
2024/01/03 03:39:36;;;;;;;1999.90;999.90;;;12.30;99.90;;;;;;5071542;28;20410;-76
2024/01/03 03:42:02;;;;;;;308.27;288.13;;;12.30;99.90;;;;;;5010990;28;20046;-76
2024/01/03 03:44:28;;;;;;;1999.90;999.90;;;12.30;99.90;;;;;;4991069;28;20069;-76
2024/01/03 03:46:55;;;;;;;1999.90;999.90;;;12.30;99.90;;;;;;4989592;28;20037;-76
2024/01/03 03:49:21;;;;;;;1999.90;999.90;;;12.30;99.90;;;;;;4989687;28;20046;-76
2024/01/03 03:51:47;;;;;;;1164.85;653.80;;;12.30;99.90;;;;;;4989450;28;20038;-76
2024/01/03 03:54:13;;;;;;;338.23;316.15;;;12.30;99.90;;;;;;4989641;28;20480;-76
2024/01/03 03:56:39;;;;;;;193.05;179.02;;;12.30;99.90;;;;;;4989428;28;20035;-76
2024/01/03 03:59:07;;;;;;;318.92;298.27;;;12.30;99.90;;;;;;4989726;28;20038;-76
2024/01/03 04:01:33;;;;;;;247.77;231.27;;;12.30;99.90;;;;;;4987922;28;20030;-76
2024/01/03 04:03:59;;;;;;;237.20;220.93;;;12.30;99.90;;;;;;4989328;28;20035;-76
2024/01/03 04:06:25;;;;;;;257.50;239.63;;;12.30;99.90;;;;;;4984669;28;20038;-76
2024/01/03 04:08:52;;;;;;;288.30;269.42;;;12.30;99.90;;;;;;4989413;28;20038;-76
2024/01/03 04:11:18;;;;;;;274.83;256.60;;;12.30;99.90;;;;;;4989142;28;20388;-77
2024/01/03 04:13:44;;;;;;;291.27;271.42;;;12.30;99.90;;;;;;4992905;28;20045;-76
2024/01/03 04:16:10;;;;;;;286.60;266.52;;;12.30;99.90;;;;;;4992275;28;20047;-76
2024/01/03 04:18:37;;;;;;;246.27;228.27;;;12.30;99.90;;;;;;4992897;28;20034;-75
2024/01/03 04:21:06;;;;;;;248.88;231.55;;;12.40;99.90;;;;;;4993846;28;20076;-76
2024/01/03 04:23:33;;;;;;;243.35;225.88;;;12.40;99.90;;;;;;4991313;28;20038;-75
2024/01/03 04:26:00;;;;;;;190.40;176.38;;;12.40;99.90;;;;;;4991721;28;20038;-76
2024/01/03 04:28:26;;;;;;;201.95;186.38;;;12.40;99.90;;;;;;4992783;28;20050;-76
2024/01/03 04:30:52;;;;;;;287.17;268.05;;;12.30;99.90;;;;;;4992171;28;20035;-76
2024/01/03 04:33:18;;;;;;;251.10;234.25;;;12.30;99.90;;;;;;4992244;28;20051;-76
2024/01/03 04:35:44;;;;;;;188.95;175.52;;;12.30;99.90;;;;;;4991444;28;20511;-75
2024/01/03 04:38:10;;;;;;;219.27;204.35;;;12.30;99.90;;;;;;5013744;28;20042;-76
2024/01/03 04:40:37;;;;;;;207.20;193.15;;;12.30;99.90;;;;;;5074619;28;20648;-75
2024/01/03 04:43:03;;;;;;;232.38;216.77;;;12.30;99.90;;;;;;4992494;28;20046;-75
2024/01/03 04:45:29;;;;;;;214.13;200.05;;;12.30;99.90;;;;;;4990865;28;20400;-76
2024/01/03 04:47:55;;;;;;;241.82;225.43;;;12.30;99.90;;;;;;4992147;28;20042;-76
2024/01/03 04:50:21;;;;;;;226.20;211.57;;;12.30;99.90;;;;;;4992733;28;20491;-76
2024/01/03 04:52:47;;;;;;;237.55;221.00;;;12.30;99.90;;;;;;4992043;28;20034;-76
2024/01/03 04:55:14;;;;;;;250.98;233.93;;;12.30;99.90;;;;;;4992158;28;20495;-76
2024/01/03 04:57:40;;;;;;;233.35;217.82;;;12.30;99.90;;;;;;4992072;28;20034;-76
2024/01/03 05:00:06;;;;;;;236.68;220.88;;;12.30;99.90;;;;;;4991510;28;20044;-76
2024/01/03 05:02:32;;;;;;;223.23;208.73;;;12.20;99.90;;;;;;4992061;28;20041;-76
2024/01/03 05:04:58;;;;;;;786.60;518.08;;;12.20;99.90;;;;;;4990835;28;20030;-76
2024/01/03 05:07:24;;;;;;;372.52;349.05;;;12.20;99.90;;;;;;4991882;28;20033;-76
2024/01/03 05:09:50;;;;;;;297.30;278.60;;;12.20;99.90;;;;;;4991592;28;20035;-76
2024/01/03 05:12:17;;;;;;;307.70;288.10;;;12.10;99.90;;;;;;4991580;28;20033;-76
2024/01/03 05:14:43;;;;;;;234.95;219.13;;;12.10;99.90;;;;;;4991776;28;20031;-75
2024/01/03 05:17:09;;;;;;;198.35;184.75;;;12.10;99.90;;;;;;4991552;27;20105;-76
2024/01/03 05:19:35;;;;;;;230.30;214.98;;;12.10;99.90;;;;;;4991600;28;20026;-76
2024/01/03 05:22:01;;;;;;;194.55;180.73;;;12.10;99.90;;;;;;4991582;28;20056;-76
2024/01/03 05:24:27;;;;;;;185.40;172.75;;;12.00;99.90;;;;;;4991222;28;20029;-76
2024/01/03 05:26:53;;;;;;;194.77;180.95;;;12.00;99.90;;;;;;4990407;28;20039;-76
2024/01/03 05:29:19;;;;;;;204.55;190.57;;;12.10;99.90;;;;;;4990168;28;20041;-76
2024/01/03 05:31:45;;;;;;;237.07;219.63;;;12.00;99.90;;;;;;4990013;28;20041;-76
2024/01/03 05:34:12;;;;;;;178.90;166.38;;;12.00;99.90;;;;;;4991535;28;20496;-75
2024/01/03 05:36:38;;;;;;;242.05;224.93;;;12.00;99.90;;;;;;4991716;28;20500;-75
2024/01/03 05:39:04;;;;;;;206.60;192.02;;;12.00;99.90;;;;;;5035049;28;20034;-76
2024/01/03 05:41:30;;;;;;;230.85;215.07;;;12.00;99.90;;;;;;4991420;28;20037;-76
2024/01/03 05:43:56;;;;;;;237.07;219.90;;;11.90;99.90;;;;;;4991087;28;20400;-76
2024/01/03 05:46:23;;;;;;;280.13;260.65;;;11.90;99.90;;;;;;4991152;28;20039;-75
2024/01/03 05:48:49;;;;;;;226.30;210.77;;;11.90;99.90;;;;;;4991096;28;20030;-75
2024/01/03 05:51:16;;;;;;;279.08;259.45;;;11.90;99.90;;;;;;4993521;28;20031;-76
2024/01/03 05:53:47;;;;;;;198.63;184.15;;;11.90;99.90;;;;;;5010287;28;20064;-76
2024/01/03 05:56:14;;;;;;;207.38;192.85;;;12.00;99.90;;;;;;4999782;28;20035;-76
2024/01/03 05:58:42;;;;;;;262.30;244.48;;;11.90;99.90;;;;;;4990919;28;20030;-76
2024/01/03 06:01:09;;;;;;;322.15;302.10;;;11.90;99.90;;;;;;4991835;27;20035;-76
2024/01/03 06:03:35;;;;;;;265.60;247.43;;;11.90;99.90;;;;;;4990931;28;20034;-76
2024/01/03 06:06:01;;;;;;;270.45;252.25;;;11.90;99.90;;;;;;4990965;28;20037;-76
2024/01/03 06:08:27;;;;;;;249.18;231.75;;;12.00;99.90;;;;;;4990244;28;20035;-76
2024/01/03 06:10:54;;;;;;;246.35;229.00;;;11.90;99.90;;;;;;4988948;28;20061;-76
2024/01/03 06:13:21;;;;;;;233.95;217.73;;;11.90;99.90;;;;;;4990063;28;20048;-76
2024/01/03 06:15:47;;;;;;;211.98;197.07;;;12.00;99.90;;;;;;4989632;27;20049;-75
2024/01/03 06:18:14;;;;;;;216.13;199.98;;;12.00;99.90;;;;;;4990857;28;20035;-75
2024/01/03 06:20:40;;;;;;;242.75;225.40;;;12.00;99.90;;;;;;4990485;28;20057;-76
2024/01/03 06:23:07;;;;;;;249.05;230.82;;;12.00;99.90;;;;;;4989966;28;20464;-76
2024/01/03 06:25:33;;;;;;;343.13;320.27;;;12.00;99.90;;;;;;4990646;28;20038;-75
2024/01/03 06:27:59;;;;;;;390.23;364.65;;;12.00;99.90;;;;;;4990741;28;20038;-76
2024/01/03 06:30:25;;;;;;;271.50;253.25;;;12.00;99.90;;;;;;4990374;27;20041;-75
2024/01/03 06:32:51;;;;;;;333.60;311.88;;;12.00;99.90;;;;;;4990659;28;20373;-76
2024/01/03 06:35:17;;;;;;;318.90;297.05;;;12.00;99.90;;;;;;4989868;28;20038;-75
2024/01/03 06:37:43;;;;;;;220.07;204.07;;;12.00;99.90;;;;;;4992508;28;20377;-75
2024/01/03 06:40:10;;;;;;;248.60;231.00;;;12.00;99.90;;;;;;5091534;28;20063;-76
2024/01/03 06:42:36;;;;;;;253.13;234.98;;;12.10;99.90;;;;;;4990548;28;20033;-75
2024/01/03 06:45:02;;;;;;;213.80;198.85;;;12.00;99.90;;;;;;4990242;28;20496;-72
2024/01/03 06:47:28;;;;;;;246.55;228.40;;;12.00;99.90;;;;;;4990166;28;20034;-76
2024/01/03 06:49:54;;;;;;;270.17;251.73;;;12.00;99.90;;;;;;4990523;28;20050;-75
2024/01/03 06:52:20;;;;;;;200.40;184.90;;;12.10;99.90;;;;;;4989920;28;20034;-76
2024/01/03 06:54:46;;;;;;;248.85;230.77;;;12.10;99.90;;;;;;4989133;28;20046;-76
2024/01/03 06:57:12;;;;;;;162.40;150.27;;;12.00;99.90;;;;;;4990616;28;20033;-75
2024/01/03 06:59:39;;;;;;;198.73;185.43;;;12.10;99.90;;;;;;4990283;28;20049;-75
2024/01/03 07:02:05;;;;;;;175.90;163.35;;;12.10;99.90;;;;;;4989671;27;20034;-75
2024/01/03 07:04:31;;;;;;;192.90;179.57;;;12.10;99.90;;;;;;4990522;28;20041;-75
2024/01/03 07:06:57;;;;;;;177.18;164.00;;;12.10;99.90;;;;;;4989929;28;20038;-76
2024/01/03 07:09:23;;;;;;;211.48;197.77;;;12.10;99.90;;;;;;4990487;28;20046;-76
2024/01/03 07:11:49;;;;;;;166.68;154.88;;;12.10;99.90;;;;;;4989786;28;20026;-75
2024/01/03 07:14:15;;;;;;;192.63;179.77;;;12.10;99.90;;;;;;4990058;28;20057;-76
2024/01/03 07:16:41;;;;;;;231.85;214.85;;;12.10;99.90;;;;;;5049732;28;20028;-76
2024/01/03 07:19:07;;;;;;;217.13;201.75;;;12.10;99.90;;;;;;5064791;28;20040;-75
2024/01/03 07:21:33;;;;;;;240.20;224.02;;;12.10;99.90;;;;;;4980834;28;20412;-76
2024/01/03 07:23:59;;;;;;;227.75;212.10;;;12.10;99.90;;;;;;4990143;28;20035;-76
2024/01/03 07:26:26;;;;;;;217.90;203.00;;;12.10;99.90;;;;;;4990080;28;20577;-75
2024/01/03 07:28:52;;;;;;;162.25;150.98;;;12.10;99.90;;;;;;4990045;28;20034;-75
2024/01/03 07:31:18;;;;;;;173.23;160.98;;;12.10;99.90;;;;;;4987052;28;20057;-75
2024/01/03 07:33:44;;;;;;;161.25;149.68;;;12.10;99.90;;;;;;4979572;28;20057;-75
2024/01/03 07:36:10;;;;;;;171.90;160.40;;;12.10;99.90;;;;;;4970434;28;20059;-75
2024/01/03 07:38:36;;;;;;;174.88;160.73;;;12.10;99.90;;;;;;5028678;28;20040;-75
2024/01/03 07:41:02;;;;;;;256.35;237.00;;;12.10;99.90;;;;;;5091822;28;20075;-75
2024/01/03 07:43:29;;;;;;;187.55;174.55;;;12.10;99.90;;;;;;5090841;28;20040;-79
2024/01/03 07:45:58;;;;;;;183.25;169.07;;;12.20;99.90;;;;;;5018028;28;20034;-82
2024/01/03 07:48:24;;;;;;;185.45;172.55;;;12.20;99.90;;;;;;4986702;28;20403;-75
2024/01/03 07:50:51;;;;;;;211.20;196.95;;;12.20;99.90;;;;;;4999508;28;20039;-75
2024/01/03 07:53:17;;;;;;;191.18;177.77;;;12.20;99.90;;;;;;4993381;28;20057;-74
2024/01/03 07:55:43;;;;;;;180.93;168.38;;;12.20;99.90;;;;;;4992745;28;20038;-75
2024/01/03 07:58:09;;;;;;;181.32;168.30;;;12.10;99.90;;;;;;5001597;28;20132;-75
2024/01/03 08:00:35;;;;;;;198.43;184.75;;;12.10;99.90;;;;;;4992138;28;20045;-75
2024/01/03 08:03:01;;;;;;;205.95;191.18;;;12.10;99.90;;;;;;4989885;28;20039;-74
2024/01/03 08:05:28;;;;;;;211.93;196.13;;;12.10;99.90;;;;;;4975682;28;20038;-74
2024/01/03 08:07:54;;;;;;;293.80;273.95;;;12.10;99.90;;;;;;4993675;28;20407;-75
2024/01/03 08:10:20;;;;;;;226.77;211.02;;;12.10;99.90;;;;;;4992585;28;20035;-74
2024/01/03 08:12:46;;;;;;;224.88;208.70;;;12.10;99.90;;;;;;4992092;28;20468;-75
2024/01/03 08:15:12;;;;;;;298.77;278.58;;;12.20;99.90;;;;;;4992186;28;20033;-75
2024/01/03 08:17:38;;;;;;;266.23;248.80;;;12.20;99.90;;;;;;4992024;28;20030;-75
2024/01/03 08:20:05;;;;;;;281.88;262.58;;;12.20;99.90;;;;;;4995088;28;20397;-74
2024/01/03 08:22:34;;;;;;;270.20;251.02;;;12.20;99.90;;;;;;4993046;28;20043;-75
2024/01/03 08:25:00;;;;;;;241.07;224.63;;;12.20;99.90;;;;;;4988800;28;20034;-74
2024/01/03 08:27:26;;;;;;;289.10;269.27;;;12.20;99.90;;;;;;4992283;28;20038;-75
2024/01/03 08:29:52;;;;;;;353.17;329.85;;;12.20;99.90;;;;;;4992786;28;20030;-74
2024/01/03 08:32:18;;;;;;;280.83;261.50;;;12.20;99.90;;;;;;4991640;27;20042;-74
2024/01/03 08:34:45;;;;;;;238.73;222.80;;;12.30;99.90;;;;;;4992362;28;20046;-75
2024/01/03 08:37:12;;;;;;;268.65;250.27;;;12.30;99.90;;;;;;4991852;28;20042;-74
2024/01/03 08:39:39;;;;;;;211.07;196.05;;;12.30;99.90;;;;;;5016743;28;20058;-74
2024/01/03 08:42:05;;;;;;;210.23;194.63;;;12.30;99.90;;;;;;4991521;28;20037;-75
2024/01/03 08:44:31;;;;;;;278.33;259.38;;;12.30;99.90;;;;;;4992374;28;20365;-75
2024/01/03 08:46:58;;;;;;;246.68;230.35;;;12.30;99.90;;;;;;4991798;28;20038;-75
2024/01/03 08:49:24;;;;;;;276.05;256.30;;;12.30;99.90;;;;;;4991999;28;20099;-77
2024/01/03 08:51:50;;;;;;;296.23;275.55;;;12.30;99.90;;;;;;4992486;28;20031;-75
2024/01/03 08:54:16;;;;;;;387.55;355.95;;;12.30;99.90;;;;;;4991559;28;20049;-74
2024/01/03 08:56:42;;;;;;;305.40;284.30;;;12.30;99.90;;;;;;4992177;28;20027;-75
2024/01/03 08:59:09;;;;;;;328.05;306.45;;;12.30;99.90;;;;;;4991244;28;20045;-74
2024/01/03 09:01:35;;;;;;;398.75;371.10;;;12.20;99.90;;;;;;4991320;28;20049;-75
2024/01/03 09:04:01;;;;;;;422.27;394.52;;;12.20;99.90;;;;;;4990843;28;20369;-74
2024/01/03 09:06:27;;;;;;;287.98;268.30;;;12.20;99.90;;;;;;4990123;28;20042;-74
2024/01/03 09:08:54;;;;;;;258.85;241.55;;;12.20;99.90;;;;;;4992212;28;20046;-74
2024/01/03 09:11:24;;;;;;;316.25;294.92;;;12.20;99.90;;;;;;5036407;28;20027;-75
2024/01/03 09:13:51;;;;;;;211.20;197.40;;;12.10;99.90;;;;;;5044914;28;20053;-74
2024/01/03 09:16:18;;;;;;;285.88;266.67;;;12.20;99.90;;;;;;5006268;28;20038;-74
2024/01/03 09:18:45;;;;;;;279.10;261.15;;;12.20;99.90;;;;;;5040334;28;20041;-73
2024/01/03 09:21:12;;;;;;;181.52;170.00;;;12.20;99.90;;;;;;4992929;28;20124;-73
2024/01/03 09:23:38;;;;;;;179.52;168.48;;;12.20;99.90;;;;;;5000803;28;20046;-74
2024/01/03 09:26:04;;;;;;;194.93;182.80;;;12.20;99.90;;;;;;5000671;28;20037;-74
2024/01/03 09:28:30;;;;;;;212.73;200.13;;;12.20;99.90;;;;;;4997291;28;20503;-73
2024/01/03 09:30:56;;;;;;;170.88;159.85;;;12.20;99.90;;;;;;5000119;28;20045;-74
2024/01/03 09:33:23;;;;;;;154.27;143.65;;;12.30;99.90;;;;;;4991882;28;20034;-73
2024/01/03 09:35:49;;;;;;;215.93;203.10;;;12.30;99.90;;;;;;5067545;28;20034;-74
2024/01/03 09:38:15;;;;;;;1999.90;999.90;;;12.30;99.90;;;;;;5002026;28;20048;-75
2024/01/03 09:40:41;;;;;;;1999.90;999.90;;;12.30;99.90;;;;;;4992779;28;20046;-74
2024/01/03 09:43:09;;;;;;;1636.32;877.40;;;12.40;99.90;;;;;;4989498;28;20054;-74
2024/01/03 09:45:35;;;;;;;1999.90;999.90;;;12.40;99.90;;;;;;4990094;28;20042;-74
2024/01/03 09:48:01;;;;;;;1999.90;999.90;;;12.50;99.90;;;;;;4988891;28;20480;-74
2024/01/03 09:50:27;;;;;;;1999.90;999.90;;;12.50;99.90;;;;;;4989688;28;20231;-74
2024/01/03 09:52:56;;;;;;;1999.90;999.90;;;12.50;99.90;;;;;;4981485;28;20063;-74
2024/01/03 09:55:22;;;;;;;1999.90;999.90;;;12.60;99.90;;;;;;5005185;28;20050;-74
2024/01/03 09:57:51;;;;;;;1999.90;999.90;;;12.60;99.90;;;;;;5001630;28;20504;-74
2024/01/03 10:00:18;;;;;;;1999.90;999.90;;;12.70;99.90;;;;;;4989641;28;20046;-74
2024/01/03 10:02:47;;;;;;;1999.90;999.90;;;12.70;99.90;;;;;;5001167;28;20368;-73
2024/01/03 10:05:20;;;;;;;1999.90;999.90;;;12.70;99.90;;;;;;4994788;28;20041;-75
2024/01/03 10:07:46;;;;;;;1999.90;999.90;;;12.80;99.90;;;;;;4986392;28;20388;-75
2024/01/03 10:10:12;;;;;;;1999.90;999.90;;;12.90;99.90;;;;;;4988810;28;20037;-74
2024/01/03 10:12:39;;;;;;;1999.90;999.90;;;12.90;99.90;;;;;;4993825;28;20396;-74
2024/01/03 10:15:15;;;;;;;1999.90;999.90;;;12.90;99.90;;;;;;4999430;28;20057;-73
2024/01/03 10:17:48;;;;;;;1999.90;999.90;;;12.90;99.90;;;;;;4992429;28;20400;-75
2024/01/03 10:20:34;;;;;;;1999.90;999.90;;;12.90;99.90;;;;;;5002149;28;20057;-75
2024/01/03 10:23:11;;;;;;;1999.90;999.90;;;12.90;99.90;;;;;;5073028;28;20055;-74
2024/01/03 10:25:37;;;;;;;1999.90;999.90;;;12.90;99.90;;;;;;4997653;28;20038;-74
2024/01/03 10:28:05;;;;;;;1999.90;999.90;;;12.90;99.90;;;;;;4989047;28;20121;-74
2024/01/03 10:30:31;;;;;;;1999.90;999.90;;;12.90;99.90;;;;;;4987709;28;20050;-76
2024/01/03 10:33:07;;;;;;;267.40;250.77;;;12.90;99.90;;;;;;4987394;28;20039;-76
2024/01/03 10:35:37;;;;;;;252.45;236.20;;;12.80;99.90;;;;;;4984373;28;20503;-76
2024/01/03 10:38:04;;;;;;;228.10;214.57;;;12.80;99.90;;;;;;4988747;28;20026;-75
2024/01/03 10:40:31;;;;;;;1999.90;999.90;;;12.70;99.90;;;;;;4989948;28;20046;-76
2024/01/03 10:42:58;;;;;;;1999.90;999.90;;;12.70;99.90;;;;;;4988919;28;20039;-76
2024/01/03 10:45:24;;;;;;;1999.90;999.90;;;12.60;99.90;;;;;;4988167;28;20038;-76
2024/01/03 10:47:51;;;;;;;1999.90;999.90;;;12.60;99.90;;;;;;4989442;28;20041;-76
2024/01/03 10:50:18;;;;;;;1999.90;999.90;;;12.50;99.90;;;;;;4989493;28;20045;-76
2024/01/03 10:52:44;;;;;;;1999.90;999.90;;;12.50;99.90;;;;;;4988293;28;20033;-76
2024/01/03 10:55:24;;;;;;;1999.90;999.90;;;12.50;99.90;;;;;;4987595;28;20038;-75
2024/01/03 10:58:03;;;;;;;1999.90;999.90;;;12.50;99.90;;;;;;4977724;28;20480;-76
2024/01/03 11:01:00;;;;;;;1999.90;999.90;;;12.50;99.90;;;;;;4987081;28;20045;-75
2024/01/03 11:03:55;;;;;;;1559.55;805.97;;;12.50;99.90;;;;;;4987300;28;20030;-75
2024/01/03 11:06:55;;;;;;;1564.20;810.30;;;12.40;99.90;;;;;;4948871;28;20374;-76
2024/01/03 11:09:22;;;;;;;1999.90;999.90;;;12.40;99.90;;;;;;4959552;28;20023;-75
2024/01/03 11:11:48;;;;;;;1109.68;603.47;;;12.30;99.90;;;;;;4982189;28;20051;-75
2024/01/03 11:14:17;;;;;;;1999.90;999.90;;;12.30;99.90;;;;;;4981918;28;20070;-75
2024/01/03 11:16:43;;;;;;;1202.40;690.40;;;12.30;99.90;;;;;;4953259;28;20382;-76
2024/01/03 11:19:09;;;;;;;1999.90;999.90;;;12.30;99.90;;;;;;4940020;28;20110;-75
2024/01/03 11:21:36;;;;;;;1999.90;999.90;;;12.30;99.90;;;;;;4948003;28;20058;-75
2024/01/03 11:24:02;;;;;;;1999.90;999.90;;;12.30;99.90;;;;;;4947808;28;20043;-75
2024/01/03 11:26:56;;;;;;;1148.30;639.75;;;12.30;99.90;;;;;;4973100;28;20031;-75
2024/01/03 11:29:46;;;;;;;732.58;469.38;;;12.30;99.90;;;;;;4941660;28;20069;-75
2024/01/03 11:32:15;;;;;;;1999.90;999.90;;;12.40;99.90;;;;;;4960361;28;20512;-75
2024/01/03 11:34:44;;;;;;;1999.90;999.90;;;12.50;99.90;;;;;;4959536;28;20048;-75
2024/01/03 11:37:16;;;;;;;1577.85;823.20;;;12.60;99.90;;;;;;4963554;28;20382;-75
2024/01/03 11:39:45;;;;;;;285.30;268.60;;;12.70;99.90;;;;;;5009924;28;20100;-75
2024/01/03 11:42:25;;;;;;;1999.90;999.90;;;12.80;99.90;;;;;;5002814;28;20491;-75
2024/01/03 11:45:12;;;;;;;1999.90;999.90;;;13.00;99.90;;;;;;4987675;28;20057;-75
2024/01/03 11:47:39;;;;;;;1999.90;999.90;;;13.10;99.90;;;;;;4982340;28;20087;-75
2024/01/03 11:50:08;;;;;;;1999.90;999.90;;;13.10;99.90;;;;;;4987522;28;20037;-75
2024/01/03 11:52:55;;;;;;;1999.90;999.90;;;13.00;99.90;;;;;;4987309;28;20042;-75
2024/01/03 11:55:23;;;;;;;1999.90;999.90;;;12.90;99.90;;;;;;4986915;28;20050;-75
2024/01/03 11:57:49;;;;;;;1999.90;999.90;;;12.80;99.90;;;;;;4987044;28;20034;-75
2024/01/03 12:00:20;;;;;;;1999.90;999.90;;;12.70;99.90;;;;;;4987822;28;20045;-75
2024/01/03 12:02:49;;;;;;;1999.90;999.90;;;12.70;99.90;;;;;;4985962;28;20022;-75
2024/01/03 12:05:16;;;;;;;1999.90;999.90;;;12.60;99.90;;;;;;4988078;28;20043;-75
2024/01/03 12:07:42;;;;;;;1999.90;999.90;;;12.60;99.90;;;;;;4988094;28;20034;-74